Time;durP1;ratioP1;P1;durP2;ratioP2;P2;SDS_P1;SDS_P2;PMS_P1;PMS_P2;Temp;Humidity;BMP_temperature;BMP_pressure;BME280_temperature;BME280_humidity;BME280_pressure;Samples;Min_cycle;Max_cycle;Signal;HPM_P1;HPM_P2
2022/12/26 00:01:38;;;;;;;3.72;2.85;;;11.40;99.90;;;;;;4992454;28;20030;-68
2022/12/26 00:04:04;;;;;;;7.13;3.00;;;11.50;99.90;;;;;;4994123;28;20034;-68
2022/12/26 00:06:31;;;;;;;5.25;2.72;;;11.60;99.90;;;;;;4992867;28;20026;-69
2022/12/26 00:08:57;;;;;;;6.03;2.65;;;11.50;99.90;;;;;;4992848;28;20037;-69
2022/12/26 00:11:23;;;;;;;10.27;2.78;;;11.60;99.90;;;;;;4993986;28;20030;-68
2022/12/26 00:13:57;;;;;;;6.28;3.03;;;11.50;99.90;;;;;;4992539;28;20022;-68
2022/12/26 00:16:24;;;;;;;5.75;2.80;;;11.40;99.90;;;;;;4993758;28;20033;-68
2022/12/26 00:18:49;;;;;;;6.30;2.78;;;11.30;99.90;;;;;;4994078;28;20036;-68
2022/12/26 00:21:20;;;;;;;4.82;2.42;;;11.30;99.90;;;;;;4993636;28;20018;-69
2022/12/26 00:23:46;;;;;;;4.75;2.47;;;11.40;99.90;;;;;;4993592;28;20125;-69
2022/12/26 00:26:17;;;;;;;6.63;3.05;;;11.50;99.90;;;;;;4993649;28;20038;-69
2022/12/26 00:28:43;;;;;;;3.53;2.43;;;11.60;99.90;;;;;;4994359;28;20023;-68
2022/12/26 00:31:15;;;;;;;3.60;2.67;;;11.50;99.90;;;;;;4997206;28;20285;-68
2022/12/26 00:33:41;;;;;;;5.30;3.00;;;11.50;99.90;;;;;;4997818;28;20453;-68
2022/12/26 00:36:32;;;;;;;4.50;2.72;;;11.40;99.90;;;;;;4996978;28;20061;-68
2022/12/26 00:38:59;;;;;;;5.75;2.63;;;11.50;99.90;;;;;;4992875;28;20097;-68
2022/12/26 00:41:26;;;;;;;5.30;2.72;;;11.40;99.90;;;;;;4976789;28;20027;-68
2022/12/26 00:43:52;;;;;;;6.82;3.22;;;11.40;99.90;;;;;;4976727;28;20033;-68
2022/12/26 00:46:18;;;;;;;6.32;3.30;;;11.60;99.90;;;;;;4976741;28;20121;-68
2022/12/26 00:48:43;;;;;;;9.10;2.58;;;11.60;99.90;;;;;;4976943;28;20117;-68
2022/12/26 00:51:10;;;;;;;3.63;2.75;;;11.70;99.90;;;;;;4977705;28;20023;-68
2022/12/26 00:53:35;;;;;;;4.90;3.13;;;11.60;99.90;;;;;;4976960;28;20130;-67
2022/12/26 00:56:01;;;;;;;4.28;2.95;;;11.60;99.90;;;;;;4976947;28;20486;-68
2022/12/26 00:58:27;;;;;;;4.35;2.63;;;11.60;99.90;;;;;;4977346;28;20077;-68
2022/12/26 01:00:53;;;;;;;4.95;2.78;;;11.60;99.90;;;;;;4977120;28;20030;-68
2022/12/26 01:03:19;;;;;;;5.75;2.92;;;11.50;99.90;;;;;;4992583;28;20031;-68
2022/12/26 01:05:47;;;;;;;6.65;3.08;;;11.40;99.90;;;;;;4976420;28;20023;-68
2022/12/26 01:08:13;;;;;;;5.85;3.10;;;11.40;99.90;;;;;;4977600;28;20034;-68
2022/12/26 01:10:46;;;;;;;4.32;2.70;;;11.50;99.90;;;;;;4976057;28;20027;-68
2022/12/26 01:13:12;;;;;;;5.82;3.05;;;11.50;99.90;;;;;;4976558;28;20106;-69
2022/12/26 01:15:37;;;;;;;5.68;3.10;;;11.60;99.90;;;;;;4976143;28;20118;-69
2022/12/26 01:18:03;;;;;;;5.18;2.47;;;11.70;99.90;;;;;;4976239;28;20034;-68
2022/12/26 01:20:29;;;;;;;5.88;2.70;;;11.60;99.90;;;;;;4977225;28;20031;-69
2022/12/26 01:22:55;;;;;;;8.75;3.30;;;11.60;99.90;;;;;;4975985;28;20125;-68
2022/12/26 01:25:21;;;;;;;3.63;2.67;;;11.70;99.90;;;;;;4977142;28;20097;-69
2022/12/26 01:27:47;;;;;;;4.57;2.83;;;11.80;99.90;;;;;;4975843;28;20035;-68
2022/12/26 01:30:13;;;;;;;7.32;2.55;;;11.90;99.90;;;;;;5006922;28;20085;-69
2022/12/26 01:33:04;;;;;;;4.72;2.80;;;11.90;99.90;;;;;;4976713;28;20034;-69
2022/12/26 01:35:30;;;;;;;10.27;3.03;;;11.90;99.90;;;;;;4976055;28;20125;-69
2022/12/26 01:37:55;;;;;;;3.83;2.72;;;11.90;99.90;;;;;;4991734;28;20181;-69
2022/12/26 01:40:21;;;;;;;4.78;2.78;;;11.90;99.90;;;;;;4990662;28;20026;-69
2022/12/26 01:42:46;;;;;;;4.25;2.55;;;11.90;99.90;;;;;;4975990;28;20022;-69
2022/12/26 01:45:23;;;;;;;5.82;2.40;;;11.90;99.90;;;;;;4975535;28;20019;-69
2022/12/26 01:47:51;;;;;;;4.95;2.65;;;11.80;99.90;;;;;;4991909;28;20026;-69
2022/12/26 01:50:38;;;;;;;6.18;2.78;;;11.80;99.90;;;;;;4976739;28;20533;-69
2022/12/26 01:53:16;;;;;;;4.70;2.65;;;11.80;99.90;;;;;;4976813;28;20130;-69
2022/12/26 01:55:46;;;;;;;4.88;2.70;;;11.80;99.90;;;;;;4976290;28;20031;-69
2022/12/26 01:58:20;;;;;;;5.28;2.95;;;11.80;99.90;;;;;;4976074;28;20117;-69
2022/12/26 02:00:46;;;;;;;4.82;2.88;;;11.80;99.90;;;;;;4992651;28;20022;-69
2022/12/26 02:05:58;;;;;;;5.55;2.88;;;11.90;99.90;;;;;;4977080;28;20187;-69
2022/12/26 02:08:29;;;;;;;5.63;2.50;;;11.90;99.90;;;;;;4976467;28;20030;-69
2022/12/26 02:11:24;;;;;;;6.30;3.20;;;11.90;99.90;;;;;;4974833;28;20118;-69
2022/12/26 02:13:50;;;;;;;5.88;3.05;;;11.90;99.90;;;;;;4969511;28;20066;-69
2022/12/26 02:16:18;;;;;;;6.18;2.92;;;11.80;99.90;;;;;;4976245;28;20022;-69
2022/12/26 02:18:44;;;;;;;7.35;3.45;;;11.80;99.90;;;;;;4976249;28;20029;-68
2022/12/26 02:21:46;;;;;;;5.57;2.78;;;11.70;99.90;;;;;;4974902;28;20552;-68
2022/12/26 02:24:14;;;;;;;5.57;2.45;;;11.70;99.90;;;;;;4976504;28;20031;-68
2022/12/26 02:26:59;;;;;;;7.15;2.60;;;11.80;99.90;;;;;;4976163;28;20034;-68
2022/12/26 02:30:02;;;;;;;5.20;3.05;;;11.80;99.90;;;;;;4976213;28;20026;-68
2022/12/26 02:32:46;;;;;;;4.35;2.20;;;11.80;99.90;;;;;;4975935;28;20027;-68
2022/12/26 02:38:53;;;;;;;7.65;2.80;;;11.70;99.90;;;;;;4976267;28;20022;-69
2022/12/26 02:42:00;;;;;;;4.75;2.50;;;11.70;99.90;;;;;;4975773;28;20050;-69
2022/12/26 02:48:02;;;;;;;5.07;2.20;;;11.90;99.90;;;;;;4976296;28;20037;-69
2022/12/26 03:13:22;;;;;;;4.73;2.70;;;11.90;99.90;;;;;;4975791;28;20355;-69
2022/12/26 03:18:45;;;;;;;5.50;2.40;;;11.90;99.90;;;;;;4975703;28;20038;-69
2022/12/26 03:21:13;;;;;;;4.43;2.45;;;12.00;99.90;;;;;;4973676;28;20027;-69
2022/12/26 03:23:42;;;;;;;3.90;2.20;;;11.90;99.90;;;;;;4973846;28;20031;-69
2022/12/26 03:26:39;;;;;;;7.18;2.40;;;11.80;99.90;;;;;;4974563;28;20070;-69
2022/12/26 03:31:53;;;;;;;3.75;2.78;;;11.80;99.90;;;;;;4975175;28;20034;-69
2022/12/26 03:34:19;;;;;;;3.47;2.20;;;11.90;99.90;;;;;;4973676;28;20027;-69
2022/12/26 03:37:07;;;;;;;4.97;2.42;;;11.90;99.90;;;;;;4974883;28;20019;-68
2022/12/26 04:21:05;;;;;;;3.47;2.15;;;11.80;99.90;;;;;;4974454;28;20030;-69
2022/12/26 04:46:30;;;;;;;5.70;2.50;;;11.50;99.90;;;;;;4974589;28;20046;-68
2022/12/26 04:51:42;;;;;;;6.00;2.03;;;11.60;99.90;;;;;;4974138;28;20037;-68
2022/12/26 04:54:07;;;;;;;3.90;1.95;;;11.50;99.90;;;;;;4974007;28;20026;-69
2022/12/26 04:56:33;;;;;;;4.38;2.63;;;11.50;99.90;;;;;;4972674;28;20022;-68
2022/12/26 04:58:58;;;;;;;4.22;2.08;;;11.50;99.90;;;;;;4972662;28;20027;-68
2022/12/26 05:09:50;;;;;;;5.20;2.78;;;11.50;99.90;;;;;;4974386;28;20046;-69
2022/12/26 05:12:16;;;;;;;2.72;1.60;;;11.60;99.90;;;;;;4974283;28;20118;-69
2022/12/26 05:14:41;;;;;;;6.10;1.50;;;11.60;99.90;;;;;;4974596;28;20059;-69
2022/12/26 05:30:55;;;;;;;3.67;2.15;;;11.80;99.90;;;;;;4977441;28;20109;-68
2022/12/26 05:36:07;;;;;;;3.45;1.70;;;11.70;99.90;;;;;;4977364;28;20509;-68
2022/12/26 05:38:32;;;;;;;3.03;1.73;;;11.70;99.90;;;;;;4975744;28;20093;-68
2022/12/26 05:40:58;;;;;;;3.35;2.03;;;11.70;99.90;;;;;;4976818;28;20479;-68
2022/12/26 05:43:23;;;;;;;7.97;2.40;;;11.70;99.90;;;;;;4975633;28;20038;-68
2022/12/26 05:45:49;;;;;;;4.47;2.17;;;11.60;99.90;;;;;;4975607;28;20027;-68
2022/12/26 05:48:14;;;;;;;4.65;2.05;;;11.60;99.90;;;;;;4975881;28;20031;-68
2022/12/26 05:50:40;;;;;;;6.63;2.05;;;11.60;99.90;;;;;;4975408;28;20050;-68
2022/12/26 05:53:05;;;;;;;8.63;2.33;;;11.60;99.90;;;;;;4975751;28;20027;-68
2022/12/26 05:55:31;;;;;;;4.47;2.05;;;11.60;99.90;;;;;;4975392;28;20026;-68
2022/12/26 05:57:59;;;;;;;3.88;2.22;;;11.60;99.90;;;;;;4975252;28;20027;-68
2022/12/26 06:00:26;;;;;;;3.65;2.20;;;11.60;99.90;;;;;;4976092;28;20122;-68
2022/12/26 06:02:51;;;;;;;6.55;2.10;;;11.60;99.90;;;;;;4975587;28;20029;-68
2022/12/26 06:05:17;;;;;;;5.07;1.92;;;11.70;99.90;;;;;;4975284;28;20030;-68
2022/12/26 06:07:42;;;;;;;5.95;1.70;;;11.70;99.90;;;;;;4976077;28;20105;-68
2022/12/26 06:10:09;;;;;;;3.38;1.85;;;11.70;99.90;;;;;;4975201;28;20098;-68
2022/12/26 06:12:34;;;;;;;7.82;2.03;;;11.80;99.90;;;;;;4977031;28;20030;-68
2022/12/26 06:15:00;;;;;;;7.72;2.03;;;11.80;99.90;;;;;;4975051;28;20093;-68
2022/12/26 06:17:26;;;;;;;4.55;1.95;;;11.80;99.90;;;;;;4975037;28;20030;-68
2022/12/26 06:19:52;;;;;;;3.80;1.92;;;11.80;99.90;;;;;;4974940;28;20031;-68
2022/12/26 06:22:53;;;;;;;5.70;1.80;;;11.80;99.90;;;;;;4976245;28;20074;-69
2022/12/26 06:25:19;;;;;;;4.88;2.10;;;11.90;99.90;;;;;;4976456;28;20031;-69
2022/12/26 06:27:45;;;;;;;6.05;1.90;;;11.90;99.90;;;;;;4974694;28;20030;-69
2022/12/26 06:30:11;;;;;;;3.85;1.90;;;11.90;99.90;;;;;;4976091;28;20093;-69
2022/12/26 06:32:36;;;;;;;3.38;2.15;;;11.90;99.90;;;;;;4974945;28;20026;-69
2022/12/26 06:35:02;;;;;;;9.02;2.20;;;11.90;99.90;;;;;;4975915;28;20050;-69
2022/12/26 06:37:27;;;;;;;2.45;1.80;;;11.80;99.90;;;;;;4976215;28;20029;-69
2022/12/26 06:39:53;;;;;;;5.15;2.15;;;11.80;99.90;;;;;;4974668;28;20057;-69
2022/12/26 06:42:18;;;;;;;4.80;2.05;;;11.90;99.90;;;;;;4976059;28;20035;-69
2022/12/26 06:44:44;;;;;;;3.22;2.17;;;11.80;99.90;;;;;;4974600;28;20018;-69
2022/12/26 06:47:09;;;;;;;5.20;2.03;;;11.80;99.90;;;;;;4974595;28;20138;-69
2022/12/26 06:49:35;;;;;;;3.35;1.88;;;11.70;99.90;;;;;;4974469;28;20081;-69
2022/12/26 06:52:00;;;;;;;4.43;2.13;;;11.60;99.90;;;;;;4974161;28;20445;-70
2022/12/26 06:54:26;;;;;;;3.17;2.00;;;11.60;99.90;;;;;;4974732;28;20023;-70
2022/12/26 06:56:51;;;;;;;8.35;1.95;;;11.70;99.90;;;;;;4975643;28;20065;-70
2022/12/26 06:59:17;;;;;;;4.93;2.05;;;11.70;99.90;;;;;;4975076;28;20026;-70
2022/12/26 07:01:42;;;;;;;5.95;2.13;;;11.80;99.90;;;;;;4974551;28;20033;-70
2022/12/26 07:04:11;;;;;;;3.28;2.08;;;11.70;99.90;;;;;;4975082;28;20073;-70
2022/12/26 07:07:05;;;;;;;5.15;2.30;;;11.70;99.90;;;;;;4975440;28;20026;-70
2022/12/26 07:09:31;;;;;;;6.72;2.00;;;11.60;99.90;;;;;;4971698;28;20031;-68
2022/12/26 07:11:56;;;;;;;3.20;2.20;;;11.60;99.90;;;;;;4960991;28;20037;-68
2022/12/26 07:14:22;;;;;;;5.15;2.00;;;11.60;99.90;;;;;;5007777;28;20023;-68
2022/12/26 07:16:47;;;;;;;6.30;2.08;;;11.60;99.90;;;;;;4975593;28;20065;-68
2022/12/26 07:19:14;;;;;;;4.35;1.92;;;11.70;99.90;;;;;;5006550;28;20027;-69
2022/12/26 07:21:40;;;;;;;3.72;1.55;;;11.70;99.90;;;;;;5007011;28;20031;-69
2022/12/26 07:24:12;;;;;;;6.30;2.00;;;11.70;99.90;;;;;;5006952;28;20030;-68
2022/12/26 07:26:37;;;;;;;2.75;2.03;;;11.70;99.90;;;;;;4975190;28;20069;-68
2022/12/26 07:29:03;;;;;;;4.07;1.63;;;11.70;99.90;;;;;;5006424;28;20054;-68
2022/12/26 07:31:28;;;;;;;4.28;1.95;;;11.70;99.90;;;;;;4973860;28;20034;-68
2022/12/26 07:33:55;;;;;;;2.88;1.60;;;11.70;99.90;;;;;;5006267;28;20022;-68
2022/12/26 07:36:23;;;;;;;3.63;1.50;;;11.70;99.90;;;;;;4975364;28;20026;-70
2022/12/26 07:38:49;;;;;;;3.50;1.98;;;11.70;99.90;;;;;;4974576;28;20113;-70
2022/12/26 07:43:58;;;;;;;2.70;1.15;;;11.70;99.90;;;;;;4974851;28;20463;-70
2022/12/26 07:46:24;;;;;;;3.45;1.38;;;11.70;99.90;;;;;;5006835;28;20058;-70
2022/12/26 07:48:50;;;;;;;1.73;1.17;;;11.80;99.90;;;;;;5007062;28;20026;-70
2022/12/26 07:51:15;;;;;;;6.70;1.48;;;11.90;99.90;;;;;;4974808;28;20054;-69
2022/12/26 07:53:41;;;;;;;6.15;2.40;;;11.80;99.90;;;;;;4975085;28;20026;-69
2022/12/26 07:56:06;;;;;;;7.05;2.30;;;11.80;99.90;;;;;;5006177;28;20128;-70
2022/12/26 07:58:32;;;;;;;2.67;1.35;;;11.80;99.90;;;;;;4977066;28;20034;-68
2022/12/26 08:01:01;;;;;;;2.85;1.45;;;11.80;99.90;;;;;;4974694;28;20077;-68
2022/12/26 08:03:27;;;;;;;5.25;1.83;;;11.70;99.90;;;;;;5005831;28;20030;-68
2022/12/26 08:05:53;;;;;;;5.78;1.30;;;11.70;99.90;;;;;;4974216;28;20126;-69
2022/12/26 08:08:18;;;;;;;2.53;1.48;;;11.70;99.90;;;;;;5005869;28;20114;-69
2022/12/26 08:10:44;;;;;;;5.60;1.70;;;11.70;99.90;;;;;;5006453;28;20027;-69
2022/12/26 08:13:09;;;;;;;3.85;1.23;;;11.70;99.90;;;;;;5006574;28;20082;-69
2022/12/26 08:15:38;;;;;;;2.72;1.50;;;11.60;99.90;;;;;;5007002;28;20029;-69
2022/12/26 08:18:04;;;;;;;2.00;1.20;;;11.60;99.90;;;;;;4974448;28;20030;-68
2022/12/26 08:20:29;;;;;;;2.33;1.38;;;11.60;99.90;;;;;;5005757;28;20023;-68
2022/12/26 08:22:55;;;;;;;3.55;1.13;;;11.60;99.90;;;;;;5005790;28;20033;-68
2022/12/26 08:25:20;;;;;;;3.40;2.05;;;11.50;99.90;;;;;;5005656;28;20027;-68
2022/12/26 08:27:46;;;;;;;2.47;1.15;;;11.50;99.90;;;;;;5005626;28;20034;-68
2022/12/26 08:30:11;;;;;;;1.73;1.10;;;11.40;99.90;;;;;;5006778;28;20027;-68
2022/12/26 08:32:37;;;;;;;2.72;1.17;;;11.40;99.90;;;;;;5005335;28;20115;-68
2022/12/26 08:35:03;;;;;;;4.07;0.98;;;11.40;99.90;;;;;;5005794;28;20069;-68
2022/12/26 08:37:29;;;;;;;3.85;0.77;;;11.40;99.90;;;;;;4972970;28;20045;-68
2022/12/26 08:39:54;;;;;;;2.67;0.70;;;11.40;99.90;;;;;;4974219;28;20030;-68
2022/12/26 08:42:20;;;;;;;3.60;0.73;;;11.40;99.90;;;;;;5005618;28;20050;-68
2022/12/26 08:44:46;;;;;;;2.13;0.70;;;11.40;99.90;;;;;;4974285;28;20030;-68
2022/12/26 08:47:12;;;;;;;1.98;0.75;;;11.40;99.90;;;;;;5005495;28;20023;-68
2022/12/26 08:49:38;;;;;;;0.73;0.57;;;11.40;99.90;;;;;;5006535;28;20034;-68
2022/12/26 08:52:03;;;;;;;1.50;0.60;;;11.30;99.90;;;;;;4978513;28;20030;-69
2022/12/26 08:54:29;;;;;;;1.13;0.60;;;11.40;99.90;;;;;;5010683;28;20023;-69
2022/12/26 08:56:55;;;;;;;0.40;0.40;;;11.30;99.90;;;;;;5002361;28;20015;-69
2022/12/26 08:59:21;;;;;;;1.67;0.38;;;11.30;99.90;;;;;;4993769;28;20018;-69
2022/12/26 09:01:46;;;;;;;0.65;0.52;;;11.30;99.90;;;;;;4982789;28;20022;-69
2022/12/26 09:04:12;;;;;;;1.73;0.60;;;11.20;99.90;;;;;;4976786;28;20483;-69
2022/12/26 09:06:38;;;;;;;1.27;0.80;;;11.30;99.90;;;;;;4988989;28;20034;-69
2022/12/26 09:09:06;;;;;;;1.58;0.50;;;11.30;99.90;;;;;;4996051;28;20060;-69
2022/12/26 09:11:32;;;;;;;1.27;0.50;;;11.30;99.90;;;;;;4995661;28;20545;-68
2022/12/26 09:14:03;;;;;;;0.85;0.40;;;11.30;99.90;;;;;;4996263;28;20022;-69
2022/12/26 09:16:41;;;;;;;2.28;0.40;;;11.30;99.90;;;;;;4995812;28;20153;-69
2022/12/26 09:19:11;;;;;;;1.48;0.70;;;11.40;99.90;;;;;;4997409;28;20197;-69
2022/12/26 09:21:37;;;;;;;0.80;0.63;;;11.40;99.90;;;;;;4996946;28;20041;-69
2022/12/26 09:24:19;;;;;;;1.08;0.47;;;11.40;99.90;;;;;;4996349;28;20133;-70
2022/12/26 09:26:45;;;;;;;;;;;11.40;99.90;;;;;;4997355;28;20034;-69
2022/12/26 09:29:11;;;;;;;1.95;0.50;;;11.40;99.90;;;;;;4995561;28;19905;-69
2022/12/26 09:31:37;;;;;;;1.27;0.55;;;11.20;99.90;;;;;;4995681;28;20042;-69
2022/12/26 09:34:05;;;;;;;1.20;0.50;;;11.20;99.90;;;;;;4996985;28;20022;-69
2022/12/26 09:36:36;;;;;;;1.25;0.65;;;11.30;99.90;;;;;;4996288;28;20026;-69
2022/12/26 09:39:02;;;;;;;2.15;0.40;;;11.30;99.90;;;;;;4977143;28;20106;-70
2022/12/26 09:41:55;;;;;;;3.35;0.55;;;11.30;99.90;;;;;;4964241;28;20062;-70
2022/12/26 09:44:42;;;;;;;1.10;0.73;;;11.20;99.90;;;;;;4957734;28;20039;-70
2022/12/26 09:47:46;;;;;;;0.88;0.50;;;11.30;99.90;;;;;;4956518;28;20031;-70
2022/12/26 09:50:29;;;;;;;1.38;0.50;;;11.30;99.90;;;;;;4957907;28;20063;-70
2022/12/26 09:53:42;;;;;;;1.30;0.75;;;11.30;99.90;;;;;;4956398;29;20031;-70
2022/12/26 09:56:14;;;;;;;0.63;0.40;;;11.30;99.90;;;;;;4956983;29;20057;-69
2022/12/26 09:58:54;;;;;;;1.38;0.50;;;11.40;99.90;;;;;;4956334;29;20030;-69
2022/12/26 10:01:24;;;;;;;0.40;0.40;;;11.40;99.90;;;;;;4956957;28;20061;-69
2022/12/26 10:03:57;;;;;;;3.70;0.40;;;11.40;99.90;;;;;;4956362;28;20082;-70
2022/12/26 10:06:25;;;;;;;1.10;0.50;;;11.50;99.90;;;;;;4958127;29;20027;-69
2022/12/26 10:09:32;;;;;;;1.27;0.77;;;11.50;99.90;;;;;;4956110;29;20031;-69
2022/12/26 10:12:04;;;;;;;0.73;0.60;;;11.60;99.90;;;;;;4955560;28;20115;-69
2022/12/26 10:14:55;;;;;;;1.95;0.50;;;11.70;99.90;;;;;;4957156;29;20136;-70
2022/12/26 10:17:31;;;;;;;2.03;0.47;;;11.70;99.90;;;;;;4957350;28;20027;-70
2022/12/26 10:20:42;;;;;;;0.55;0.40;;;11.80;99.90;;;;;;4972324;28;20114;-69
2022/12/26 10:23:28;;;;;;;2.05;0.95;;;11.80;99.90;;;;;;4955236;28;20035;-69
2022/12/26 10:26:00;;;;;;;1.80;0.70;;;11.80;99.90;;;;;;4956494;29;20027;-69
2022/12/26 10:28:35;;;;;;;3.28;0.85;;;11.80;99.90;;;;;;4957008;29;20027;-69
2022/12/26 10:31:07;;;;;;;2.03;0.80;;;11.80;99.90;;;;;;4955431;29;20445;-68
2022/12/26 10:33:44;;;;;;;0.88;0.60;;;11.80;99.90;;;;;;4955467;29;20027;-68
2022/12/26 10:36:24;;;;;;;1.45;0.80;;;11.90;99.90;;;;;;4959709;28;20030;-69
2022/12/26 10:38:52;;;;;;;1.65;0.70;;;12.10;99.90;;;;;;5008176;28;20091;-68
2022/12/26 10:41:25;;;;;;;2.65;0.85;;;12.10;99.90;;;;;;4975777;28;20092;-68
2022/12/26 10:43:51;;;;;;;1.75;0.60;;;12.20;99.90;;;;;;5007636;28;20027;-68
2022/12/26 10:46:51;;;;;;;0.73;0.60;;;12.30;99.90;;;;;;5007501;28;20030;-68
2022/12/26 10:49:20;;;;;;;1.58;1.00;;;12.30;99.90;;;;;;5007511;28;20031;-68
2022/12/26 10:51:46;;;;;;;3.20;1.00;;;12.30;99.90;;;;;;5006880;28;20121;-68
2022/12/26 10:54:16;;;;;;;0.93;0.70;;;12.30;99.90;;;;;;4976089;28;20111;-68
2022/12/26 10:56:43;;;;;;;3.38;0.70;;;12.40;99.90;;;;;;5007551;28;20034;-69
2022/12/26 10:59:16;;;;;;;1.95;1.00;;;12.50;99.90;;;;;;5007197;28;20530;-69
2022/12/26 11:01:46;;;;;;;2.35;0.70;;;12.50;99.90;;;;;;5007445;28;20031;-69
2022/12/26 11:04:24;;;;;;;1.58;0.80;;;12.50;99.90;;;;;;5007026;28;20245;-68
2022/12/26 11:06:51;;;;;;;3.63;1.10;;;12.40;99.90;;;;;;4975547;28;20031;-68
2022/12/26 11:09:44;;;;;;;2.45;0.70;;;12.30;99.90;;;;;;4975452;28;20031;-68
2022/12/26 11:12:21;;;;;;;1.75;0.90;;;12.30;99.90;;;;;;5012436;22;20042;-68
2022/12/26 11:14:47;;;;;;;1.90;0.82;;;12.40;99.90;;;;;;4993712;28;20109;-68
2022/12/26 11:17:31;;;;;;;2.47;0.82;;;12.30;99.90;;;;;;4994180;28;20509;-68
2022/12/26 11:20:15;;;;;;;0.90;0.70;;;12.30;99.90;;;;;;4994297;28;20026;-69
2022/12/26 11:22:42;;;;;;;4.53;0.82;;;12.30;99.90;;;;;;4993599;28;20027;-69
2022/12/26 11:25:23;;;;;;;1.30;0.70;;;12.40;99.90;;;;;;4993233;28;20026;-69
2022/12/26 11:27:55;;;;;;;0.90;0.70;;;12.40;99.90;;;;;;4993267;28;20032;-68
2022/12/26 11:30:22;;;;;;;4.18;1.20;;;12.40;99.90;;;;;;4994382;28;20030;-68
2022/12/26 11:33:22;;;;;;;2.80;1.00;;;12.50;99.90;;;;;;4993848;28;20031;-68
2022/12/26 11:36:04;;;;;;;1.60;0.77;;;12.50;99.90;;;;;;4993019;28;20137;-68
2022/12/26 11:38:35;;;;;;;1.23;0.70;;;12.50;99.90;;;;;;4993021;28;20115;-68
2022/12/26 11:44:00;;;;;;;2.65;0.88;;;12.40;99.90;;;;;;4994658;28;20261;-69
2022/12/26 11:46:35;;;;;;;1.52;0.70;;;12.40;99.90;;;;;;4994000;28;20033;-68
2022/12/26 11:49:01;;;;;;;6.05;0.82;;;12.40;99.90;;;;;;4992764;28;20026;-68
2022/12/26 11:51:39;;;;;;;2.05;0.70;;;12.40;99.90;;;;;;4993775;28;20068;-69
2022/12/26 11:54:19;;;;;;;0.85;0.85;;;12.40;99.90;;;;;;4994200;28;20033;-68
2022/12/26 11:56:45;;;;;;;1.58;0.65;;;12.40;99.90;;;;;;4993914;28;20026;-68
2022/12/26 11:59:19;;;;;;;0.80;0.55;;;12.40;99.90;;;;;;4992663;28;20022;-68
2022/12/26 12:01:44;;;;;;;0.93;0.60;;;12.40;99.90;;;;;;4993171;28;20038;-68
2022/12/26 12:04:10;;;;;;;1.10;0.52;;;12.40;99.90;;;;;;4992676;28;20086;-67
2022/12/26 12:06:55;;;;;;;2.65;0.77;;;12.40;99.90;;;;;;4994382;28;20032;-67
2022/12/26 12:09:43;;;;;;;2.40;0.63;;;12.40;99.90;;;;;;4992556;28;20033;-67
2022/12/26 12:12:27;;;;;;;1.13;0.80;;;12.50;99.90;;;;;;4992755;28;20037;-68
2022/12/26 12:14:59;;;;;;;1.38;0.70;;;12.60;99.90;;;;;;4993812;28;20026;-68
2022/12/26 12:17:37;;;;;;;1.50;0.80;;;12.50;99.90;;;;;;4993314;28;20517;-67
2022/12/26 12:20:25;;;;;;;1.35;0.90;;;12.60;99.90;;;;;;4993976;28;20105;-67
2022/12/26 12:23:15;;;;;;;1.70;0.60;;;12.50;99.90;;;;;;4993159;28;20029;-67
2022/12/26 12:25:53;;;;;;;4.15;1.10;;;12.30;99.90;;;;;;4992163;28;20026;-68
2022/12/26 12:28:47;;;;;;;2.00;1.00;;;12.30;99.90;;;;;;4992296;28;20027;-68
2022/12/26 12:31:54;;;;;;;1.73;0.80;;;12.30;99.90;;;;;;4993443;28;20350;-68
2022/12/26 12:34:30;;;;;;;3.20;1.60;;;12.20;99.90;;;;;;4992375;28;20095;-68
2022/12/26 12:37:17;;;;;;;2.97;0.75;;;12.10;99.90;;;;;;4992245;28;20089;-68
2022/12/26 12:39:45;;;;;;;1.67;0.63;;;11.90;99.90;;;;;;4992166;28;20026;-69
2022/12/26 12:42:40;;;;;;;0.82;0.57;;;11.90;99.90;;;;;;4992237;28;20094;-69
2022/12/26 12:45:27;;;;;;;1.27;0.57;;;12.00;99.90;;;;;;4992540;28;20041;-69
2022/12/26 12:48:24;;;;;;;0.98;0.52;;;11.90;99.90;;;;;;4992539;28;20129;-69
2022/12/26 12:51:02;;;;;;;2.78;1.13;;;11.90;99.90;;;;;;4993504;28;20027;-69
2022/12/26 12:53:40;;;;;;;1.65;0.80;;;12.10;99.90;;;;;;4992166;28;20093;-69
2022/12/26 12:56:26;;;;;;;0.90;0.52;;;12.20;99.90;;;;;;4992129;28;20045;-68
2022/12/26 12:59:04;;;;;;;2.42;0.85;;;12.20;99.90;;;;;;4992052;28;20026;-69
2022/12/26 13:01:41;;;;;;;1.38;0.77;;;12.30;99.90;;;;;;4992011;28;20026;-69
2022/12/26 13:04:13;;;;;;;2.85;0.77;;;12.20;99.90;;;;;;4992008;28;20029;-69
2022/12/26 13:06:44;;;;;;;3.75;0.85;;;12.20;99.90;;;;;;4992349;28;20105;-69
2022/12/26 13:09:14;;;;;;;4.35;0.57;;;12.20;99.90;;;;;;4993303;28;20117;-69
2022/12/26 13:11:45;;;;;;;1.42;0.52;;;12.20;99.90;;;;;;4993372;28;20026;-69
2022/12/26 13:14:25;;;;;;;;;;;12.10;99.90;;;;;;4992586;28;20058;-70
2022/12/26 13:17:01;;;;;;;0.38;0.35;;;12.10;99.90;;;;;;4992335;28;19996;-70
2022/12/26 13:19:33;;;;;;;1.30;0.50;;;12.00;99.90;;;;;;4992020;28;20027;-70
2022/12/26 13:22:22;;;;;;;2.85;0.60;;;11.90;99.90;;;;;;4991884;28;20030;-70
2022/12/26 13:24:54;;;;;;;1.67;0.70;;;12.00;99.90;;;;;;4991654;28;20026;-70
2022/12/26 13:27:24;;;;;;;0.73;0.50;;;12.00;99.90;;;;;;4994473;28;20061;-69
2022/12/26 13:29:51;;;;;;;1.35;0.50;;;12.10;99.90;;;;;;4991747;28;20026;-69
2022/12/26 13:32:26;;;;;;;0.63;0.43;;;12.10;99.90;;;;;;4992483;28;20030;-69
2022/12/26 13:34:54;;;;;;;0.50;0.50;;;12.00;99.90;;;;;;4993243;28;20022;-69
2022/12/26 13:37:38;;;;;;;5.10;1.00;;;12.00;99.90;;;;;;4993463;28;20061;-69
2022/12/26 13:40:16;;;;;;;4.05;1.00;;;12.00;99.90;;;;;;4995381;28;20019;-70
2022/12/26 13:45:41;;;;;;;2.70;1.00;;;12.10;99.90;;;;;;4996756;28;20121;-70
2022/12/26 13:48:16;;;;;;;2.78;0.93;;;12.10;99.90;;;;;;4996449;28;20022;-69
2022/12/26 13:50:51;;;;;;;3.85;0.90;;;12.00;99.90;;;;;;4995006;28;20125;-70
2022/12/26 13:53:23;;;;;;;3.83;0.98;;;12.00;99.90;;;;;;4995211;28;20026;-70
2022/12/26 13:55:53;;;;;;;2.65;0.90;;;12.10;99.90;;;;;;4995196;28;20023;-70
2022/12/26 14:02:18;;;;;;;2.97;1.23;;;12.00;99.90;;;;;;4997380;28;20026;-70
2022/12/26 14:05:08;;;;;;;8.82;2.13;;;12.10;99.90;;;;;;4996165;28;20025;-70
2022/12/26 14:07:45;;;;;;;6.22;2.28;;;12.10;99.90;;;;;;4995940;28;20029;-70
2022/12/26 14:10:26;;;;;;;5.70;2.15;;;12.10;99.90;;;;;;4995984;28;20098;-70
2022/12/26 14:13:00;;;;;;;6.95;1.10;;;12.00;99.90;;;;;;4994949;28;20061;-71
2022/12/26 14:15:34;;;;;;;2.03;1.10;;;12.00;99.90;;;;;;4994704;28;20027;-71
2022/12/26 14:18:21;;;;;;;3.42;0.88;;;11.90;99.90;;;;;;4994526;28;20363;-71
2022/12/26 14:21:16;;;;;;;8.00;1.00;;;11.70;99.90;;;;;;4994400;28;20022;-70
2022/12/26 14:23:47;;;;;;;1.10;0.50;;;11.60;99.90;;;;;;4987900;28;20060;-70
2022/12/26 14:26:34;;;;;;;1.17;0.50;;;11.40;99.90;;;;;;4995022;28;20026;-70
2022/12/26 14:29:19;;;;;;;0.98;0.60;;;11.10;99.90;;;;;;4995955;28;20026;-70
2022/12/26 14:31:51;;;;;;;5.22;1.70;;;11.00;99.90;;;;;;4995724;28;20030;-69
2022/12/26 14:34:50;;;;;;;5.50;2.00;;;10.70;99.90;;;;;;4994465;28;20022;-67
2022/12/26 14:37:23;;;;;;;5.35;1.77;;;10.60;99.90;;;;;;4995503;28;20018;-67
2022/12/26 14:40:29;;;;;;;6.20;1.77;;;10.40;99.90;;;;;;4994771;28;20022;-67
2022/12/26 14:43:16;;;;;;;1.25;0.70;;;10.30;99.90;;;;;;4981695;28;20030;-67
2022/12/26 14:45:43;;;;;;;0.75;0.45;;;10.30;99.90;;;;;;4994350;28;20113;-68
2022/12/26 14:48:35;;;;;;;2.13;0.70;;;10.20;99.90;;;;;;4993851;28;20023;-69
2022/12/26 14:51:03;;;;;;;4.72;1.48;;;10.20;99.90;;;;;;4993711;28;20026;-69
2022/12/26 14:53:33;;;;;;;5.80;1.88;;;10.20;99.90;;;;;;4995172;28;20105;-67
2022/12/26 14:56:18;;;;;;;5.00;1.30;;;10.20;99.90;;;;;;4995114;28;20418;-68
2022/12/26 14:58:51;;;;;;;2.25;0.70;;;10.20;99.90;;;;;;4994023;28;20125;-68
2022/12/26 15:01:23;;;;;;;3.35;1.20;;;10.20;99.90;;;;;;4993657;28;20034;-68
2022/12/26 15:03:55;;;;;;;;;;;10.10;99.90;;;;;;4994126;28;20084;-68
2022/12/26 15:06:20;;;;;;;6.90;3.40;;;10.00;99.90;;;;;;4993632;28;20000;-69
2022/12/26 15:08:58;;;;;;;18.70;16.13;;;10.10;99.90;;;;;;4995183;28;20100;-68
2022/12/26 15:11:54;;;;;;;3.40;1.95;;;10.10;99.90;;;;;;4993393;28;20022;-68
2022/12/26 15:14:56;;;;;;;2.95;0.95;;;10.00;99.90;;;;;;4994283;28;20030;-68
2022/12/26 15:17:37;;;;;;;1.40;1.02;;;10.00;99.90;;;;;;4994101;28;20022;-68
2022/12/26 15:20:18;;;;;;;8.52;3.63;;;10.00;99.90;;;;;;4994734;28;20113;-68
2022/12/26 15:22:55;;;;;;;3.50;3.20;;;9.90;99.90;;;;;;4994571;28;20034;-68
2022/12/26 15:26:05;;;;;;;5.35;4.88;;;9.90;99.90;;;;;;4993910;28;20030;-68
2022/12/26 15:28:55;;;;;;;29.13;15.88;;;9.90;99.90;;;;;;4994716;28;20027;-68
2022/12/26 15:31:30;;;;;;;4.40;3.20;;;9.90;99.90;;;;;;4993604;28;20121;-68
2022/12/26 15:34:13;;;;;;;2.45;1.15;;;9.80;99.90;;;;;;4993894;28;20027;-68
2022/12/26 15:36:58;;;;;;;5.32;1.90;;;9.80;99.90;;;;;;4993152;28;20030;-68
2022/12/26 15:39:39;;;;;;;5.97;3.13;;;9.80;99.90;;;;;;4992980;28;20022;-68
2022/12/26 15:42:11;;;;;;;9.10;1.77;;;9.80;99.90;;;;;;4994649;28;20058;-68